sensor_id;sensor_type;location;lat;lon;timestamp;P1;durP1;ratioP1;P2;durP2;ratioP2
15183;SDS011;7693;49.266;7.104;2023-03-30T04:37:08;19.20;;;4.87;;
15183;SDS011;7693;49.266;7.104;2023-03-30T04:39:35;14.70;;;5.30;;
15183;SDS011;7693;49.266;7.104;2023-03-30T04:42:00;10.23;;;4.83;;
15183;SDS011;7693;49.266;7.104;2023-03-30T04:44:30;11.13;;;4.63;;
15183;SDS011;7693;49.266;7.104;2023-03-30T04:46:56;9.93;;;4.10;;
15183;SDS011;7693;49.266;7.104;2023-03-30T04:49:21;12.67;;;5.23;;
15183;SDS011;7693;49.266;7.104;2023-03-30T04:51:47;7.63;;;4.20;;
15183;SDS011;7693;49.266;7.104;2023-03-30T04:54:13;10.33;;;4.80;;
15183;SDS011;7693;49.266;7.104;2023-03-30T04:56:38;14.67;;;5.20;;
15183;SDS011;7693;49.266;7.104;2023-03-30T04:59:04;14.40;;;4.57;;
15183;SDS011;7693;49.266;7.104;2023-03-30T05:01:30;18.10;;;5.33;;
15183;SDS011;7693;49.266;7.104;2023-03-30T05:03:55;12.70;;;4.67;;
15183;SDS011;7693;49.266;7.104;2023-03-30T05:06:21;11.90;;;4.60;;
15183;SDS011;7693;49.266;7.104;2023-03-30T05:08:47;10.20;;;4.07;;
15183;SDS011;7693;49.266;7.104;2023-03-30T05:11:12;10.63;;;4.40;;
15183;SDS011;7693;49.266;7.104;2023-03-30T05:13:38;10.07;;;4.50;;
15183;SDS011;7693;49.266;7.104;2023-03-30T05:16:04;10.77;;;4.57;;
15183;SDS011;7693;49.266;7.104;2023-03-30T05:18:31;12.97;;;4.70;;
15183;SDS011;7693;49.266;7.104;2023-03-30T05:20:56;10.13;;;3.77;;
15183;SDS011;7693;49.266;7.104;2023-03-30T05:23:23;17.27;;;4.37;;
15183;SDS011;7693;49.266;7.104;2023-03-30T05:25:49;11.57;;;3.90;;
15183;SDS011;7693;49.266;7.104;2023-03-30T05:28:15;8.37;;;3.87;;
15183;SDS011;7693;49.266;7.104;2023-03-30T05:30:41;8.47;;;3.60;;
15183;SDS011;7693;49.266;7.104;2023-03-30T05:33:08;5.30;;;3.70;;
15183;SDS011;7693;49.266;7.104;2023-03-30T05:35:35;4.60;;;3.73;;
15183;SDS011;7693;49.266;7.104;2023-03-30T05:38:00;6.77;;;3.40;;
15183;SDS011;7693;49.266;7.104;2023-03-30T05:40:27;8.80;;;4.93;;
15183;SDS011;7693;49.266;7.104;2023-03-30T05:42:52;9.17;;;5.17;;
15183;SDS011;7693;49.266;7.104;2023-03-30T05:45:18;7.77;;;3.77;;
15183;SDS011;7693;49.266;7.104;2023-03-30T05:47:44;9.13;;;3.67;;
15183;SDS011;7693;49.266;7.104;2023-03-30T05:50:09;9.57;;;6.03;;
15183;SDS011;7693;49.266;7.104;2023-03-30T05:52:35;9.13;;;3.93;;
15183;SDS011;7693;49.266;7.104;2023-03-30T05:55:01;8.63;;;4.07;;
15183;SDS011;7693;49.266;7.104;2023-03-30T05:57:27;6.30;;;4.20;;
15183;SDS011;7693;49.266;7.104;2023-03-30T05:59:52;5.17;;;3.70;;
15183;SDS011;7693;49.266;7.104;2023-03-30T06:02:18;6.47;;;4.60;;
15183;SDS011;7693;49.266;7.104;2023-03-30T06:04:44;6.73;;;4.53;;
15183;SDS011;7693;49.266;7.104;2023-03-30T06:07:09;12.77;;;6.80;;
15183;SDS011;7693;49.266;7.104;2023-03-30T06:09:35;7.87;;;5.03;;
15183;SDS011;7693;49.266;7.104;2023-03-30T06:12:01;5.47;;;4.33;;
15183;SDS011;7693;49.266;7.104;2023-03-30T06:14:27;7.90;;;4.13;;
15183;SDS011;7693;49.266;7.104;2023-03-30T06:16:53;8.07;;;4.33;;
15183;SDS011;7693;49.266;7.104;2023-03-30T06:19:18;9.63;;;4.50;;
15183;SDS011;7693;49.266;7.104;2023-03-30T06:21:44;7.00;;;4.30;;
15183;SDS011;7693;49.266;7.104;2023-03-30T06:24:11;9.57;;;5.63;;
15183;SDS011;7693;49.266;7.104;2023-03-30T06:26:37;12.27;;;6.80;;
15183;SDS011;7693;49.266;7.104;2023-03-30T06:29:02;8.03;;;3.97;;
15183;SDS011;7693;49.266;7.104;2023-03-30T06:31:28;9.30;;;4.27;;
15183;SDS011;7693;49.266;7.104;2023-03-30T06:33:54;4.53;;;3.57;;
15183;SDS011;7693;49.266;7.104;2023-03-30T06:36:20;6.43;;;3.73;;
15183;SDS011;7693;49.266;7.104;2023-03-30T06:38:45;5.50;;;3.43;;
15183;SDS011;7693;49.266;7.104;2023-03-30T06:41:12;4.70;;;3.60;;
15183;SDS011;7693;49.266;7.104;2023-03-30T06:43:39;9.20;;;3.80;;
15183;SDS011;7693;49.266;7.104;2023-03-30T06:46:05;3.43;;;3.13;;
15183;SDS011;7693;49.266;7.104;2023-03-30T06:48:31;7.53;;;3.67;;
15183;SDS011;7693;49.266;7.104;2023-03-30T06:50:57;4.50;;;3.60;;
15183;SDS011;7693;49.266;7.104;2023-03-30T06:53:23;9.17;;;3.50;;
15183;SDS011;7693;49.266;7.104;2023-03-30T06:55:53;5.77;;;3.37;;
15183;SDS011;7693;49.266;7.104;2023-03-30T06:58:20;7.73;;;3.50;;
15183;SDS011;7693;49.266;7.104;2023-03-30T07:00:46;5.07;;;3.73;;
15183;SDS011;7693;49.266;7.104;2023-03-30T07:03:12;8.20;;;3.90;;
15183;SDS011;7693;49.266;7.104;2023-03-30T07:05:41;3.93;;;3.57;;
15183;SDS011;7693;49.266;7.104;2023-03-30T07:08:07;5.70;;;3.50;;
15183;SDS011;7693;49.266;7.104;2023-03-30T07:10:32;8.63;;;4.07;;
15183;SDS011;7693;49.266;7.104;2023-03-30T07:12:58;9.20;;;3.70;;
15183;SDS011;7693;49.266;7.104;2023-03-30T07:15:23;5.40;;;3.53;;
15183;SDS011;7693;49.266;7.104;2023-03-30T07:17:49;6.57;;;3.60;;
15183;SDS011;7693;49.266;7.104;2023-03-30T07:20:15;10.50;;;4.23;;
15183;SDS011;7693;49.266;7.104;2023-03-30T07:22:41;7.53;;;3.83;;
15183;SDS011;7693;49.266;7.104;2023-03-30T07:25:08;8.63;;;4.60;;
15183;SDS011;7693;49.266;7.104;2023-03-30T07:27:34;4.10;;;3.60;;
15183;SDS011;7693;49.266;7.104;2023-03-30T07:30:02;6.67;;;4.13;;
15183;SDS011;7693;49.266;7.104;2023-03-30T07:32:29;7.27;;;3.70;;
15183;SDS011;7693;49.266;7.104;2023-03-30T07:34:55;5.10;;;3.37;;
15183;SDS011;7693;49.266;7.104;2023-03-30T07:37:22;6.37;;;3.73;;
15183;SDS011;7693;49.266;7.104;2023-03-30T07:39:47;5.60;;;3.80;;
15183;SDS011;7693;49.266;7.104;2023-03-30T07:42:13;7.00;;;3.50;;
15183;SDS011;7693;49.266;7.104;2023-03-30T07:44:38;5.27;;;3.23;;
15183;SDS011;7693;49.266;7.104;2023-03-30T07:47:04;4.63;;;3.50;;
15183;SDS011;7693;49.266;7.104;2023-03-30T07:49:31;9.20;;;4.40;;
15183;SDS011;7693;49.266;7.104;2023-03-30T07:51:57;5.37;;;3.37;;
15183;SDS011;7693;49.266;7.104;2023-03-30T07:54:23;3.90;;;3.57;;
15183;SDS011;7693;49.266;7.104;2023-03-30T07:56:49;7.00;;;3.30;;
15183;SDS011;7693;49.266;7.104;2023-03-30T07:59:20;5.83;;;4.27;;
15183;SDS011;7693;49.266;7.104;2023-03-30T08:01:47;5.23;;;3.13;;
15183;SDS011;7693;49.266;7.104;2023-03-30T08:04:19;6.03;;;3.80;;
15183;SDS011;7693;49.266;7.104;2023-03-30T08:06:45;7.60;;;3.40;;
15183;SDS011;7693;49.266;7.104;2023-03-30T08:09:13;5.67;;;4.13;;
15183;SDS011;7693;49.266;7.104;2023-03-30T08:11:39;6.47;;;3.87;;
15183;SDS011;7693;49.266;7.104;2023-03-30T08:14:05;5.60;;;3.50;;
15183;SDS011;7693;49.266;7.104;2023-03-30T08:16:31;9.37;;;3.60;;
15183;SDS011;7693;49.266;7.104;2023-03-30T08:18:57;5.50;;;3.40;;
15183;SDS011;7693;49.266;7.104;2023-03-30T08:21:23;3.93;;;3.53;;
15183;SDS011;7693;49.266;7.104;2023-03-30T08:23:53;5.40;;;3.70;;
15183;SDS011;7693;49.266;7.104;2023-03-30T08:26:21;5.10;;;3.40;;
15183;SDS011;7693;49.266;7.104;2023-03-30T08:28:47;4.93;;;3.40;;
15183;SDS011;7693;49.266;7.104;2023-03-30T08:31:13;3.67;;;3.33;;
15183;SDS011;7693;49.266;7.104;2023-03-30T08:33:42;3.77;;;3.37;;
15183;SDS011;7693;49.266;7.104;2023-03-30T08:36:08;6.37;;;4.00;;
15183;SDS011;7693;49.266;7.104;2023-03-30T08:38:34;6.97;;;3.53;;
15183;SDS011;7693;49.266;7.104;2023-03-30T08:41:00;5.70;;;3.20;;
15183;SDS011;7693;49.266;7.104;2023-03-30T08:46:16;3.90;;;3.50;;
15183;SDS011;7693;49.266;7.104;2023-03-30T08:48:43;4.93;;;3.43;;
15183;SDS011;7693;49.266;7.104;2023-03-30T08:51:23;7.07;;;3.73;;
15183;SDS011;7693;49.266;7.104;2023-03-30T08:54:00;5.87;;;3.60;;
15183;SDS011;7693;49.266;7.104;2023-03-30T09:07:32;3.63;;;3.33;;
15183;SDS011;7693;49.266;7.104;2023-03-30T09:10:07;6.80;;;3.53;;
15183;SDS011;7693;49.266;7.104;2023-03-30T09:12:49;3.93;;;3.30;;
15183;SDS011;7693;49.266;7.104;2023-03-30T09:15:21;8.07;;;3.40;;
15183;SDS011;7693;49.266;7.104;2023-03-30T09:20:41;3.17;;;2.90;;
15183;SDS011;7693;49.266;7.104;2023-03-30T09:23:12;4.13;;;3.40;;
15183;SDS011;7693;49.266;7.104;2023-03-30T09:25:48;4.77;;;3.50;;
15183;SDS011;7693;49.266;7.104;2023-03-30T09:28:23;5.23;;;3.50;;
15183;SDS011;7693;49.266;7.104;2023-03-30T09:31:04;6.27;;;3.57;;
15183;SDS011;7693;49.266;7.104;2023-03-30T09:33:45;3.17;;;2.70;;
15183;SDS011;7693;49.266;7.104;2023-03-30T09:36:24;7.53;;;3.30;;
15183;SDS011;7693;49.266;7.104;2023-03-30T09:38:55;4.17;;;3.63;;
15183;SDS011;7693;49.266;7.104;2023-03-30T09:44:15;4.17;;;3.40;;
15183;SDS011;7693;49.266;7.104;2023-03-30T09:46:47;3.73;;;3.20;;
15183;SDS011;7693;49.266;7.104;2023-03-30T09:49:14;4.50;;;3.07;;
15183;SDS011;7693;49.266;7.104;2023-03-30T09:51:55;6.27;;;3.07;;
15183;SDS011;7693;49.266;7.104;2023-03-30T09:54:38;6.03;;;3.37;;
15183;SDS011;7693;49.266;7.104;2023-03-30T09:57:05;4.57;;;3.30;;
15183;SDS011;7693;49.266;7.104;2023-03-30T09:59:47;5.77;;;3.50;;
15183;SDS011;7693;49.266;7.104;2023-03-30T10:07:23;3.43;;;3.13;;
15183;SDS011;7693;49.266;7.104;2023-03-30T10:09:53;5.93;;;3.23;;
15183;SDS011;7693;49.266;7.104;2023-03-30T10:12:22;5.33;;;2.83;;
15183;SDS011;7693;49.266;7.104;2023-03-30T10:14:53;4.83;;;2.80;;
15183;SDS011;7693;49.266;7.104;2023-03-30T10:17:22;3.47;;;3.13;;
15183;SDS011;7693;49.266;7.104;2023-03-30T10:19:51;5.57;;;2.73;;
15183;SDS011;7693;49.266;7.104;2023-03-30T10:22:18;4.10;;;2.57;;
15183;SDS011;7693;49.266;7.104;2023-03-30T10:24:54;3.63;;;2.70;;
15183;SDS011;7693;49.266;7.104;2023-03-30T10:27:31;3.20;;;2.30;;
15183;SDS011;7693;49.266;7.104;2023-03-30T10:30:07;7.87;;;3.00;;
15183;SDS011;7693;49.266;7.104;2023-03-30T10:32:36;6.33;;;3.20;;
15183;SDS011;7693;49.266;7.104;2023-03-30T10:35:03;4.40;;;2.60;;
15183;SDS011;7693;49.266;7.104;2023-03-30T10:37:37;4.17;;;2.57;;
15183;SDS011;7693;49.266;7.104;2023-03-30T10:40:10;5.10;;;2.63;;
15183;SDS011;7693;49.266;7.104;2023-03-30T10:42:41;3.77;;;2.57;;
15183;SDS011;7693;49.266;7.104;2023-03-30T13:08:44;3.50;;;2.13;;
15183;SDS011;7693;49.266;7.104;2023-03-30T13:11:18;4.63;;;1.88;;
15183;SDS011;7693;49.266;7.104;2023-03-30T13:13:50;2.40;;;2.00;;
15183;SDS011;7693;49.266;7.104;2023-03-30T13:29:39;2.15;;;1.50;;
15183;SDS011;7693;49.266;7.104;2023-03-30T13:51:22;2.50;;;1.67;;
15183;SDS011;7693;49.266;7.104;2023-03-30T13:53:52;2.67;;;1.58;;
15183;SDS011;7693;49.266;7.104;2023-03-30T13:56:32;2.35;;;1.73;;
15183;SDS011;7693;49.266;7.104;2023-03-30T13:59:03;1.45;;;1.25;;
15183;SDS011;7693;49.266;7.104;2023-03-30T14:01:37;2.03;;;1.50;;
15183;SDS011;7693;49.266;7.104;2023-03-30T14:04:04;3.55;;;1.77;;
15183;SDS011;7693;49.266;7.104;2023-03-30T14:06:33;1.73;;;1.63;;
15183;SDS011;7693;49.266;7.104;2023-03-30T14:09:09;1.63;;;1.48;;
15183;SDS011;7693;49.266;7.104;2023-03-30T14:11:43;2.70;;;1.80;;
15183;SDS011;7693;49.266;7.104;2023-03-30T14:14:16;3.00;;;2.33;;
15183;SDS011;7693;49.266;7.104;2023-03-30T14:17:01;3.03;;;2.05;;
15183;SDS011;7693;49.266;7.104;2023-03-30T14:19:37;1.65;;;1.55;;
15183;SDS011;7693;49.266;7.104;2023-03-30T14:22:29;3.22;;;2.05;;
15183;SDS011;7693;49.266;7.104;2023-03-30T14:24:57;3.45;;;1.80;;
15183;SDS011;7693;49.266;7.104;2023-03-30T14:27:36;3.92;;;1.88;;
15183;SDS011;7693;49.266;7.104;2023-03-30T14:30:11;1.70;;;1.60;;
15183;SDS011;7693;49.266;7.104;2023-03-30T14:32:46;4.97;;;2.13;;
15183;SDS011;7693;49.266;7.104;2023-03-30T14:35:15;3.78;;;2.22;;
15183;SDS011;7693;49.266;7.104;2023-03-30T14:37:42;4.40;;;1.98;;
15183;SDS011;7693;49.266;7.104;2023-03-30T14:40:17;3.17;;;1.98;;
15183;SDS011;7693;49.266;7.104;2023-03-30T14:42:46;6.65;;;2.30;;
15183;SDS011;7693;49.266;7.104;2023-03-30T14:45:14;3.13;;;2.17;;
15183;SDS011;7693;49.266;7.104;2023-03-30T14:47:42;2.88;;;2.00;;
15183;SDS011;7693;49.266;7.104;2023-03-30T14:50:11;4.40;;;2.08;;
15183;SDS011;7693;49.266;7.104;2023-03-30T14:52:40;5.20;;;2.10;;
15183;SDS011;7693;49.266;7.104;2023-03-30T14:55:15;5.28;;;1.83;;
15183;SDS011;7693;49.266;7.104;2023-03-30T14:57:46;4.45;;;1.85;;
15183;SDS011;7693;49.266;7.104;2023-03-30T15:00:13;2.95;;;1.95;;
15183;SDS011;7693;49.266;7.104;2023-03-30T15:02:42;3.45;;;2.00;;
15183;SDS011;7693;49.266;7.104;2023-03-30T15:05:09;2.10;;;1.60;;
15183;SDS011;7693;49.266;7.104;2023-03-30T15:07:36;5.35;;;1.83;;
15183;SDS011;7693;49.266;7.104;2023-03-30T15:10:01;2.08;;;1.65;;
15183;SDS011;7693;49.266;7.104;2023-03-30T15:12:31;4.00;;;1.85;;
15183;SDS011;7693;49.266;7.104;2023-03-30T15:15:00;5.43;;;2.15;;
15183;SDS011;7693;49.266;7.104;2023-03-30T15:17:29;2.78;;;1.80;;
15183;SDS011;7693;49.266;7.104;2023-03-30T15:19:57;4.07;;;1.67;;
15183;SDS011;7693;49.266;7.104;2023-03-30T15:22:25;4.28;;;1.90;;
15183;SDS011;7693;49.266;7.104;2023-03-30T15:25:05;2.45;;;1.75;;
15183;SDS011;7693;49.266;7.104;2023-03-30T15:27:35;3.35;;;2.35;;
15183;SDS011;7693;49.266;7.104;2023-03-30T15:30:02;4.03;;;2.13;;
15183;SDS011;7693;49.266;7.104;2023-03-30T15:32:33;4.22;;;1.98;;
15183;SDS011;7693;49.266;7.104;2023-03-30T15:37:57;3.00;;;1.83;;
15183;SDS011;7693;49.266;7.104;2023-03-30T15:40:39;5.75;;;2.20;;
15183;SDS011;7693;49.266;7.104;2023-03-30T15:43:17;7.18;;;2.30;;
15183;SDS011;7693;49.266;7.104;2023-03-30T15:45:44;4.07;;;2.50;;
15183;SDS011;7693;49.266;7.104;2023-03-30T15:48:13;3.13;;;1.80;;
15183;SDS011;7693;49.266;7.104;2023-03-30T15:50:41;6.78;;;2.25;;
15183;SDS011;7693;49.266;7.104;2023-03-30T15:53:12;4.65;;;2.10;;
15183;SDS011;7693;49.266;7.104;2023-03-30T15:55:44;4.30;;;2.10;;
15183;SDS011;7693;49.266;7.104;2023-03-30T15:58:16;4.88;;;2.17;;
15183;SDS011;7693;49.266;7.104;2023-03-30T16:00:47;5.45;;;2.47;;
15183;SDS011;7693;49.266;7.104;2023-03-30T16:03:13;3.30;;;2.20;;
15183;SDS011;7693;49.266;7.104;2023-03-30T16:05:56;4.63;;;2.40;;
15183;SDS011;7693;49.266;7.104;2023-03-30T16:08:22;7.93;;;2.35;;
15183;SDS011;7693;49.266;7.104;2023-03-30T16:10:47;5.15;;;2.58;;
15183;SDS011;7693;49.266;7.104;2023-03-30T16:13:13;4.40;;;2.30;;
15183;SDS011;7693;49.266;7.104;2023-03-30T16:15:39;4.35;;;2.33;;
15183;SDS011;7693;49.266;7.104;2023-03-30T16:18:04;4.22;;;2.20;;
15183;SDS011;7693;49.266;7.104;2023-03-30T16:20:30;4.88;;;2.30;;
15183;SDS011;7693;49.266;7.104;2023-03-30T16:22:56;8.32;;;2.80;;
15183;SDS011;7693;49.266;7.104;2023-03-30T16:25:23;7.90;;;2.50;;
15183;SDS011;7693;49.266;7.104;2023-03-30T16:27:51;3.78;;;2.00;;
15183;SDS011;7693;49.266;7.104;2023-03-30T16:30:22;4.55;;;2.42;;
15183;SDS011;7693;49.266;7.104;2023-03-30T16:32:54;5.00;;;2.00;;
15183;SDS011;7693;49.266;7.104;2023-03-30T16:35:20;4.60;;;2.42;;
15183;SDS011;7693;49.266;7.104;2023-03-30T16:37:46;4.35;;;2.30;;
15183;SDS011;7693;49.266;7.104;2023-03-30T16:42:58;3.72;;;2.13;;
15183;SDS011;7693;49.266;7.104;2023-03-30T16:45:24;4.13;;;2.45;;
15183;SDS011;7693;49.266;7.104;2023-03-30T16:47:51;4.78;;;2.10;;
15183;SDS011;7693;49.266;7.104;2023-03-30T16:50:21;3.88;;;2.03;;
15183;SDS011;7693;49.266;7.104;2023-03-30T16:52:47;7.70;;;2.05;;
15183;SDS011;7693;49.266;7.104;2023-03-30T16:55:13;3.20;;;1.90;;
15183;SDS011;7693;49.266;7.104;2023-03-30T16:57:39;5.05;;;1.90;;
15183;SDS011;7693;49.266;7.104;2023-03-30T17:02:42;5.22;;;2.40;;
15183;SDS011;7693;49.266;7.104;2023-03-30T17:05:07;4.80;;;2.50;;
15183;SDS011;7693;49.266;7.104;2023-03-30T17:07:33;6.63;;;2.50;;
15183;SDS011;7693;49.266;7.104;2023-03-30T17:10:00;4.43;;;2.05;;
15183;SDS011;7693;49.266;7.104;2023-03-30T17:12:48;3.83;;;2.30;;
15183;SDS011;7693;49.266;7.104;2023-03-30T17:15:14;4.65;;;2.53;;
15183;SDS011;7693;49.266;7.104;2023-03-30T17:17:40;5.00;;;2.20;;
15183;SDS011;7693;49.266;7.104;2023-03-30T17:20:13;3.95;;;2.22;;
15183;SDS011;7693;49.266;7.104;2023-03-30T17:22:46;5.72;;;2.42;;
15183;SDS011;7693;49.266;7.104;2023-03-30T17:25:12;5.97;;;2.38;;
15183;SDS011;7693;49.266;7.104;2023-03-30T17:27:38;4.35;;;2.42;;
15183;SDS011;7693;49.266;7.104;2023-03-30T17:32:45;5.82;;;2.40;;
15183;SDS011;7693;49.266;7.104;2023-03-30T17:35:12;7.63;;;2.67;;
15183;SDS011;7693;49.266;7.104;2023-03-30T17:37:39;3.05;;;2.00;;
15183;SDS011;7693;49.266;7.104;2023-03-30T17:40:22;5.05;;;1.80;;
15183;SDS011;7693;49.266;7.104;2023-03-30T17:42:50;6.18;;;2.58;;
15183;SDS011;7693;49.266;7.104;2023-03-30T17:45:17;4.50;;;2.40;;
15183;SDS011;7693;49.266;7.104;2023-03-30T17:47:44;6.27;;;2.40;;
15183;SDS011;7693;49.266;7.104;2023-03-30T17:52:53;5.53;;;2.50;;
15183;SDS011;7693;49.266;7.104;2023-03-30T17:55:20;7.13;;;3.17;;
15183;SDS011;7693;49.266;7.104;2023-03-30T17:57:47;4.77;;;2.30;;
15183;SDS011;7693;49.266;7.104;2023-03-30T18:02:44;6.93;;;2.60;;
15183;SDS011;7693;49.266;7.104;2023-03-30T18:05:10;5.77;;;3.33;;
15183;SDS011;7693;49.266;7.104;2023-03-30T18:07:36;6.33;;;3.20;;
15183;SDS011;7693;49.266;7.104;2023-03-30T18:10:15;6.17;;;2.63;;
15183;SDS011;7693;49.266;7.104;2023-03-30T18:12:48;6.90;;;3.93;;
15183;SDS011;7693;49.266;7.104;2023-03-30T18:15:15;7.20;;;4.33;;
15183;SDS011;7693;49.266;7.104;2023-03-30T18:17:43;5.17;;;2.87;;
15183;SDS011;7693;49.266;7.104;2023-03-30T18:22:55;9.20;;;2.90;;
15183;SDS011;7693;49.266;7.104;2023-03-30T18:25:21;5.23;;;2.50;;
15183;SDS011;7693;49.266;7.104;2023-03-30T18:27:47;5.57;;;2.27;;
15183;SDS011;7693;49.266;7.104;2023-03-30T18:32:53;5.13;;;2.53;;
15183;SDS011;7693;49.266;7.104;2023-03-30T18:35:20;7.60;;;2.87;;
15183;SDS011;7693;49.266;7.104;2023-03-30T18:37:48;4.60;;;2.50;;
15183;SDS011;7693;49.266;7.104;2023-03-30T18:40:28;9.70;;;3.20;;
15183;SDS011;7693;49.266;7.104;2023-03-30T18:42:56;7.13;;;2.77;;
15183;SDS011;7693;49.266;7.104;2023-03-30T18:45:23;29.37;;;12.23;;
15183;SDS011;7693;49.266;7.104;2023-03-30T18:47:54;6.97;;;3.53;;
15183;SDS011;7693;49.266;7.104;2023-03-30T18:52:55;11.27;;;6.07;;
15183;SDS011;7693;49.266;7.104;2023-03-30T18:55:21;13.37;;;7.27;;
15183;SDS011;7693;49.266;7.104;2023-03-30T18:57:46;5.70;;;4.10;;
15183;SDS011;7693;49.266;7.104;2023-03-30T19:00:16;11.30;;;4.00;;
15183;SDS011;7693;49.266;7.104;2023-03-30T19:02:50;6.57;;;2.70;;
15183;SDS011;7693;49.266;7.104;2023-03-30T19:05:17;4.90;;;3.00;;
15183;SDS011;7693;49.266;7.104;2023-03-30T19:07:43;9.03;;;4.47;;
15183;SDS011;7693;49.266;7.104;2023-03-30T19:10:11;9.60;;;3.17;;
15183;SDS011;7693;49.266;7.104;2023-03-30T19:12:38;6.83;;;3.17;;
15183;SDS011;7693;49.266;7.104;2023-03-30T19:15:04;14.93;;;5.87;;
15183;SDS011;7693;49.266;7.104;2023-03-30T19:17:30;9.40;;;3.90;;
15183;SDS011;7693;49.266;7.104;2023-03-30T19:19:56;7.43;;;3.60;;
15183;SDS011;7693;49.266;7.104;2023-03-30T19:22:21;8.30;;;3.30;;
15183;SDS011;7693;49.266;7.104;2023-03-30T19:24:47;7.63;;;4.60;;
15183;SDS011;7693;49.266;7.104;2023-03-30T19:27:13;10.27;;;3.57;;
15183;SDS011;7693;49.266;7.104;2023-03-30T19:29:38;10.57;;;5.20;;
15183;SDS011;7693;49.266;7.104;2023-03-30T19:32:04;17.83;;;7.67;;
15183;SDS011;7693;49.266;7.104;2023-03-30T19:34:30;9.93;;;4.73;;
15183;SDS011;7693;49.266;7.104;2023-03-30T19:36:56;9.83;;;4.17;;
15183;SDS011;7693;49.266;7.104;2023-03-30T19:39:22;8.70;;;3.60;;
15183;SDS011;7693;49.266;7.104;2023-03-30T19:41:48;4.70;;;3.80;;
15183;SDS011;7693;49.266;7.104;2023-03-30T19:44:13;6.27;;;3.60;;
15183;SDS011;7693;49.266;7.104;2023-03-30T19:46:39;10.57;;;4.33;;
15183;SDS011;7693;49.266;7.104;2023-03-30T19:49:05;10.10;;;3.73;;
15183;SDS011;7693;49.266;7.104;2023-03-30T19:51:30;7.37;;;3.83;;
15183;SDS011;7693;49.266;7.104;2023-03-30T19:53:56;5.83;;;3.30;;
15183;SDS011;7693;49.266;7.104;2023-03-30T19:56:22;8.43;;;3.63;;
15183;SDS011;7693;49.266;7.104;2023-03-30T19:58:49;9.10;;;3.50;;
15183;SDS011;7693;49.266;7.104;2023-03-30T20:01:15;7.90;;;3.10;;
15183;SDS011;7693;49.266;7.104;2023-03-30T20:03:41;10.07;;;3.40;;
15183;SDS011;7693;49.266;7.104;2023-03-30T20:06:08;6.60;;;3.10;;
15183;SDS011;7693;49.266;7.104;2023-03-30T20:08:35;14.43;;;3.20;;
15183;SDS011;7693;49.266;7.104;2023-03-30T20:11:03;8.20;;;3.43;;
15183;SDS011;7693;49.266;7.104;2023-03-30T20:13:31;9.37;;;3.83;;
15183;SDS011;7693;49.266;7.104;2023-03-30T20:15:57;8.83;;;4.70;;
15183;SDS011;7693;49.266;7.104;2023-03-30T20:18:23;7.33;;;3.50;;
15183;SDS011;7693;49.266;7.104;2023-03-30T20:20:48;10.00;;;4.30;;
15183;SDS011;7693;49.266;7.104;2023-03-30T20:23:14;6.97;;;3.00;;
15183;SDS011;7693;49.266;7.104;2023-03-30T20:25:43;8.73;;;3.70;;
15183;SDS011;7693;49.266;7.104;2023-03-30T20:28:14;8.07;;;3.60;;
15183;SDS011;7693;49.266;7.104;2023-03-30T20:30:40;10.10;;;3.70;;
15183;SDS011;7693;49.266;7.104;2023-03-30T20:33:06;11.77;;;3.83;;
15183;SDS011;7693;49.266;7.104;2023-03-30T20:35:33;10.50;;;3.30;;
15183;SDS011;7693;49.266;7.104;2023-03-30T20:37:59;7.17;;;3.10;;
15183;SDS011;7693;49.266;7.104;2023-03-30T20:40:28;10.23;;;3.33;;
15183;SDS011;7693;49.266;7.104;2023-03-30T20:42:54;8.50;;;3.43;;
15183;SDS011;7693;49.266;7.104;2023-03-30T20:45:26;9.03;;;3.70;;
15183;SDS011;7693;49.266;7.104;2023-03-30T20:47:51;9.63;;;3.60;;
15183;SDS011;7693;49.266;7.104;2023-03-30T20:50:17;5.40;;;2.60;;
15183;SDS011;7693;49.266;7.104;2023-03-30T20:52:43;7.03;;;3.03;;
15183;SDS011;7693;49.266;7.104;2023-03-30T20:55:09;8.13;;;2.97;;
15183;SDS011;7693;49.266;7.104;2023-03-30T20:57:34;8.70;;;3.03;;
15183;SDS011;7693;49.266;7.104;2023-03-30T21:00:00;9.53;;;3.23;;
15183;SDS011;7693;49.266;7.104;2023-03-30T21:02:28;13.23;;;3.80;;
15183;SDS011;7693;49.266;7.104;2023-03-30T21:04:54;7.97;;;3.10;;
15183;SDS011;7693;49.266;7.104;2023-03-30T21:07:23;9.23;;;3.23;;
15183;SDS011;7693;49.266;7.104;2023-03-30T21:09:50;10.77;;;3.30;;
15183;SDS011;7693;49.266;7.104;2023-03-30T21:12:16;5.90;;;3.00;;
15183;SDS011;7693;49.266;7.104;2023-03-30T21:14:41;7.77;;;3.20;;
15183;SDS011;7693;49.266;7.104;2023-03-30T21:17:09;7.27;;;3.30;;
15183;SDS011;7693;49.266;7.104;2023-03-30T21:19:35;11.17;;;3.07;;
15183;SDS011;7693;49.266;7.104;2023-03-30T21:22:01;11.77;;;3.57;;
15183;SDS011;7693;49.266;7.104;2023-03-30T21:24:26;7.30;;;3.10;;
15183;SDS011;7693;49.266;7.104;2023-03-30T21:26:52;9.20;;;2.77;;
15183;SDS011;7693;49.266;7.104;2023-03-30T21:29:18;6.07;;;2.70;;
15183;SDS011;7693;49.266;7.104;2023-03-30T21:31:43;8.60;;;3.33;;
15183;SDS011;7693;49.266;7.104;2023-03-30T21:34:09;5.70;;;2.60;;
15183;SDS011;7693;49.266;7.104;2023-03-30T21:36:35;7.13;;;2.77;;
15183;SDS011;7693;49.266;7.104;2023-03-30T21:39:00;5.53;;;2.80;;
15183;SDS011;7693;49.266;7.104;2023-03-30T21:41:26;5.17;;;2.43;;
15183;SDS011;7693;49.266;7.104;2023-03-30T21:43:52;7.70;;;3.13;;
15183;SDS011;7693;49.266;7.104;2023-03-30T21:46:19;7.53;;;2.60;;
